createdAt,value
2022-08-26T00:04:27.673Z,81.10
2022-08-26T00:12:37.304Z,80.70
2022-08-26T00:20:44.087Z,80.70
2022-08-26T00:28:52.711Z,81.20
2022-08-26T00:36:58.619Z,80.70
2022-08-26T00:45:11.581Z,81.00
2022-08-26T00:53:26.295Z,81.30
2022-08-26T01:01:36.245Z,81.70
2022-08-26T01:09:41.694Z,82.00
2022-08-26T01:17:50.719Z,82.40
2022-08-26T01:26:05.810Z,82.40
2022-08-26T01:34:17.934Z,82.80
2022-08-26T01:42:29.009Z,82.80
2022-08-26T01:50:38.208Z,83.10
2022-08-26T01:58:49.649Z,83.80
2022-08-26T02:06:57.591Z,84.60
2022-08-26T02:15:11.188Z,84.40
2022-08-26T02:23:16.656Z,84.40
2022-08-26T02:31:25.921Z,84.60
2022-08-26T02:39:32.406Z,84.70
2022-08-26T02:47:40.565Z,84.80
2022-08-26T02:55:49.530Z,85.30
2022-08-26T03:03:58.702Z,85.80
2022-08-26T03:12:04.197Z,86.20
2022-08-26T03:20:13.758Z,87.30
2022-08-26T03:28:21.440Z,86.80
2022-08-26T03:36:29.817Z,86.60
2022-08-26T03:44:35.478Z,86.70
2022-08-26T03:52:44.241Z,87.00
2022-08-26T04:00:50.245Z,87.60
2022-08-26T04:09:05.440Z,88.50
2022-08-26T04:17:11.484Z,87.80
2022-08-26T04:25:20.492Z,87.80
2022-08-26T04:33:32.419Z,87.50
2022-08-26T04:41:41.657Z,87.20
2022-08-26T04:49:47.106Z,87.00
2022-08-26T04:57:55.164Z,88.00
2022-08-26T05:06:01.028Z,87.30
2022-08-26T05:14:10.190Z,85.90
2022-08-26T05:22:15.669Z,85.80
2022-08-26T05:30:26.756Z,85.20
2022-08-26T05:38:32.177Z,82.40
2022-08-26T05:46:42.086Z,81.70
2022-08-26T05:54:49.543Z,80.40
2022-08-26T06:02:58.968Z,79.20
2022-08-26T06:11:07.291Z,77.50
2022-08-26T06:19:17.577Z,75.90
2022-08-26T06:27:23.234Z,74.20
2022-08-26T06:35:31.650Z,73.60
2022-08-26T06:43:36.975Z,71.90
2022-08-26T06:51:45.226Z,68.90
2022-08-26T06:59:54.337Z,68.60
2022-08-26T07:08:02.322Z,67.80
2022-08-26T07:16:08.739Z,67.00
2022-08-26T07:24:17.666Z,65.30
2022-08-26T07:32:23.711Z,64.80
2022-08-26T07:40:32.091Z,63.30
2022-08-26T07:48:38.186Z,63.20
2022-08-26T07:56:48.654Z,61.80
2022-08-26T08:04:54.747Z,60.70
2022-08-26T08:13:03.181Z,59.50
2022-08-26T08:21:21.314Z,59.00
2022-08-26T08:29:30.704Z,57.80
2022-08-26T08:37:36.138Z,56.80
2022-08-26T08:45:52.550Z,56.10
2022-08-26T08:53:59.745Z,56.90
2022-08-26T09:02:16.871Z,56.10
2022-08-26T09:10:35.190Z,55.60
2022-08-26T09:19:04.257Z,55.70
2022-08-26T09:27:11.439Z,54.60
2022-08-26T09:35:31.014Z,55.90
2022-08-26T09:43:36.429Z,55.50
2022-08-26T09:51:44.894Z,54.20
2022-08-26T09:59:57.859Z,51.00
2022-08-26T10:08:25.978Z,52.00
2022-08-26T10:16:37.418Z,51.40
2022-08-26T10:24:54.471Z,49.10
2022-08-26T10:33:04.648Z,47.90
2022-08-26T10:41:16.957Z,49.50
2022-08-26T10:49:23.902Z,47.10
2022-08-26T10:57:49.335Z,45.80
2022-08-26T11:06:19.314Z,36.40
2022-08-26T11:14:53.590Z,30.20
2022-08-26T11:23:34.079Z,26.70
2022-08-26T11:32:00.022Z,25.60
2022-08-26T11:40:12.260Z,25.00
2022-08-26T11:48:23.944Z,24.40
2022-08-26T11:56:33.351Z,23.00
2022-08-26T12:04:44.116Z,24.10
2022-08-26T12:12:58.106Z,23.40
2022-08-26T12:21:16.253Z,23.50
2022-08-26T12:29:28.480Z,24.10
2022-08-26T12:37:40.385Z,22.90
2022-08-26T12:46:00.044Z,23.00
2022-08-26T12:54:08.228Z,22.70
2022-08-26T13:02:13.778Z,23.00
2022-08-26T13:10:40.262Z,22.50
2022-08-26T13:18:45.598Z,23.70
2022-08-26T13:26:54.995Z,28.10
2022-08-26T13:35:05.591Z,32.40
2022-08-26T13:43:14.556Z,36.10
2022-08-26T13:51:20.574Z,38.00
2022-08-26T13:59:28.604Z,39.90
2022-08-26T14:07:36.249Z,41.20
2022-08-26T14:15:46.806Z,41.20
2022-08-26T14:23:52.229Z,41.60
2022-08-26T14:32:06.910Z,42.30
2022-08-26T14:40:14.160Z,42.20
2022-08-26T14:48:22.333Z,42.80
2022-08-26T14:56:27.839Z,43.30
2022-08-26T15:04:35.930Z,43.20
2022-08-26T15:12:41.503Z,43.20
2022-08-26T15:20:49.791Z,43.60
2022-08-26T15:28:55.499Z,43.70
2022-08-26T15:37:03.458Z,43.90
2022-08-26T15:45:09.948Z,43.50
2022-08-26T15:53:18.375Z,44.10
2022-08-26T16:01:27.532Z,43.90
2022-08-26T16:09:37.118Z,44.40
2022-08-26T16:17:42.982Z,45.20
2022-08-26T16:25:51.405Z,45.20
2022-08-26T16:33:56.844Z,45.50
2022-08-26T16:42:04.856Z,45.70
2022-08-26T16:50:13.070Z,45.80
2022-08-26T16:58:22.330Z,46.40
2022-08-26T17:06:27.861Z,46.70
2022-08-26T17:14:36.279Z,47.60
2022-08-26T17:22:43.922Z,51.00
2022-08-26T17:30:54.366Z,54.00
2022-08-26T17:39:00.719Z,56.00
2022-08-26T17:47:09.561Z,57.00
2022-08-26T17:55:17.013Z,57.60
2022-08-26T18:03:25.257Z,58.30
2022-08-26T18:11:31.949Z,58.70
2022-08-26T18:19:39.934Z,59.80
2022-08-26T18:27:45.436Z,59.70
2022-08-26T18:35:56.510Z,60.20
2022-08-26T18:44:02.666Z,60.40
2022-08-26T18:52:10.684Z,60.60
2022-08-26T19:00:17.667Z,60.70
2022-08-26T19:08:25.716Z,61.10
2022-08-26T19:16:34.396Z,60.60
2022-08-26T19:24:42.450Z,61.10
2022-08-26T19:32:48.027Z,61.20
2022-08-26T19:40:56.072Z,61.20
2022-08-26T19:49:01.530Z,61.30
2022-08-26T19:57:09.528Z,61.20
2022-08-26T20:05:16.690Z,62.00
2022-08-26T20:13:24.716Z,64.00
2022-08-26T20:21:31.706Z,64.70
2022-08-26T20:29:40.601Z,64.90
2022-08-26T20:37:46.138Z,65.00
2022-08-26T20:45:54.403Z,65.60
2022-08-26T20:54:01.939Z,65.80
2022-08-26T21:02:11.280Z,66.10
2022-08-26T21:10:18.119Z,66.40
2022-08-26T21:18:26.727Z,66.40
2022-08-26T21:26:32.539Z,67.00
2022-08-26T21:34:41.620Z,67.60
2022-08-26T21:42:47.004Z,68.10
2022-08-26T21:50:57.285Z,68.40
2022-08-26T21:59:03.874Z,68.70
2022-08-26T22:07:11.908Z,69.00
2022-08-26T22:15:19.895Z,69.30
2022-08-26T22:23:28.408Z,68.90
2022-08-26T22:31:38.332Z,68.30
2022-08-26T22:39:46.623Z,69.00
2022-08-26T22:47:52.070Z,69.80
2022-08-26T22:56:00.106Z,70.50
2022-08-26T23:04:07.445Z,71.30
2022-08-26T23:12:15.551Z,71.80
2022-08-26T23:20:22.541Z,71.60
2022-08-26T23:28:32.018Z,71.90
2022-08-26T23:36:37.421Z,73.20
2022-08-26T23:44:45.574Z,74.40
2022-08-26T23:53:03.585Z,74.00
